Time;durP1;ratioP1;P1;durP2;ratioP2;P2;SDS_P1;SDS_P2;PMS_P1;PMS_P2;Temp;Humidity;BMP_temperature;BMP_pressure;BME280_temperature;BME280_humidity;BME280_pressure;Samples;Min_cycle;Max_cycle;Signal;HPM_P1;HPM_P2
2023/09/26 00:01:46;;;;;;;;;;;;;;;14.32;100.00;100356.50;4877636;29;19928;-73
2023/09/26 00:04:11;;;;;;;;;;;;;;;14.26;100.00;100351.78;4878027;29;19930;-73
2023/09/26 00:06:37;;;;;;;;;;;;;;;14.26;100.00;100345.66;4876630;29;19923;-73
2023/09/26 00:09:05;;;;;;;;;;;;;;;14.24;100.00;100347.63;4878504;29;20047;-73
2023/09/26 00:11:33;;;;;;;;;;;;;;;14.24;100.00;100340.50;4877556;29;19928;-74
2023/09/26 00:13:58;;;;;;;;;;;;;;;14.26;100.00;100348.31;4865872;29;19924;-74
2023/09/26 00:16:24;;;;;;;;;;;;;;;14.27;100.00;100350.81;4878111;29;19971;-74
2023/09/26 00:18:49;;;;;;;;;;;;;;;14.16;100.00;100351.00;4875852;29;20316;-74
2023/09/26 00:21:15;;;;;;;;;;;;;;;13.96;100.00;100349.41;4876134;29;19932;-74
2023/09/26 00:23:40;;;;;;;;;;;;;;;14.07;100.00;100340.44;4877143;29;19931;-75
2023/09/26 00:26:07;;;;;;;;;;;;;;;13.99;100.00;100342.97;4861284;29;20326;-73
2023/09/26 00:28:33;;;;;;;;;;;;;;;13.94;100.00;100335.47;4876070;29;19928;-72
2023/09/26 00:31:04;;;;;;;;;;;;;;;13.88;100.00;100333.38;4877233;29;20043;-74
2023/09/26 00:33:29;;;;;;;;;;;;;;;13.70;100.00;100335.13;4877527;29;19935;-74
2023/09/26 00:35:56;;;;;;;;;;;;;;;13.77;100.00;100333.56;4877555;29;19924;-74
2023/09/26 00:38:22;;;;;;;;;;;;;;;13.83;100.00;100338.28;4877280;29;20381;-75
2023/09/26 00:40:47;;;;;;;;;;;;;;;13.85;100.00;100331.00;4875889;29;19931;-75
2023/09/26 00:43:25;;;;;;;;;;;;;;;13.88;100.00;100336.03;4877400;29;19927;-74
2023/09/26 00:45:53;;;;;;;;;;;;;;;13.71;100.00;100339.44;4872037;29;19930;-75
2023/09/26 00:48:18;;;;;;;;;;;;;;;13.61;100.00;100339.44;4877255;29;19924;-75
2023/09/26 00:50:44;;;;;;;;;;;;;;;13.63;100.00;100341.97;4875305;29;19924;-74
2023/09/26 00:53:10;;;;;;;;;;;;;;;13.66;100.00;100336.38;4871657;29;19927;-74
2023/09/26 00:55:35;;;;;;;;;;;;;;;13.53;100.00;100334.03;4877264;29;19928;-75
2023/09/26 00:58:01;;;;;;;;;;;;;;;13.42;100.00;100332.41;4875726;29;20018;-75
2023/09/26 01:00:26;;;;;;;;;;;;;;;13.37;100.00;100337.25;4871178;29;19924;-75
2023/09/26 01:02:52;;;;;;;;;;;;;;;13.30;100.00;100330.88;4875027;29;19928;-74
2023/09/26 01:05:17;;;;;;;;;;;;;;;13.33;100.00;100341.19;4876677;29;20392;-74
2023/09/26 01:07:43;;;;;;;;;;;;;;;13.31;100.00;100337.00;4875591;29;20367;-75
2023/09/26 01:10:10;;;;;;;;;;;;;;;13.24;100.00;100347.34;4877376;29;19944;-75
2023/09/26 01:12:36;;;;;;;;;;;;;;;13.23;100.00;100340.34;4876751;29;20007;-75
2023/09/26 01:15:03;;;;;;;;;;;;;;;13.18;100.00;100341.75;4877787;29;20266;-75
2023/09/26 01:17:32;;;;;;;;;;;;;;;13.07;100.00;100337.41;4877292;29;20010;-74
2023/09/26 01:19:57;;;;;;;;;;;;;;;12.98;100.00;100340.88;4879207;29;19971;-75
2023/09/26 01:22:25;;;;;;;;;;;;;;;13.08;100.00;100347.00;4870817;29;19999;-73
2023/09/26 01:24:51;;;;;;;;;;;;;;;13.19;100.00;100344.28;4884781;29;19935;-72
2023/09/26 01:27:17;;;;;;;;;;;;;;;13.21;100.00;100342.31;4883957;29;19946;-73
2023/09/26 01:29:42;;;;;;;;;;;;;;;13.18;100.00;100342.59;4882829;29;20405;-73
2023/09/26 01:32:09;;;;;;;;;;;;;;;13.22;100.00;100343.97;4882065;29;19931;-73
2023/09/26 01:34:34;;;;;;;;;;;;;;;13.25;100.00;100346.38;4881831;29;19924;-72
2023/09/26 01:36:59;;;;;;;;;;;;;;;13.25;100.00;100349.03;4882450;29;19924;-72
2023/09/26 01:39:25;;;;;;;;;;;;;;;12.98;100.00;100335.59;4883354;29;19923;-73
2023/09/26 01:41:51;;;;;;;;;;;;;;;12.87;100.00;100338.38;4877649;29;19960;-73
2023/09/26 01:44:16;;;;;;;;;;;;;;;12.94;100.00;100335.03;4883117;29;19991;-74
2023/09/26 01:46:42;;;;;;;;;;;;;;;12.99;100.00;100331.97;4882615;29;19923;-75
2023/09/26 01:49:07;;;;;;;;;;;;;;;12.98;100.00;100340.88;4883090;29;19971;-74
2023/09/26 01:51:34;;;;;;;;;;;;;;;12.98;100.00;100332.94;4882862;29;19982;-74
2023/09/26 01:53:59;;;;;;;;;;;;;;;12.90;100.00;100335.47;4881108;29;19931;-74
2023/09/26 01:56:24;;;;;;;;;;;;;;;12.66;100.00;100333.19;4879320;29;19931;-72
2023/09/26 01:58:50;;;;;;;;;;;;;;;12.50;100.00;100338.16;4882986;29;19928;-74
2023/09/26 02:01:15;;;;;;;;;;;;;;;12.40;100.00;100335.50;4881550;29;19930;-73
2023/09/26 02:03:42;;;;;;;;;;;;;;;12.29;100.00;100338.25;4882665;29;19923;-75
2023/09/26 02:06:07;;;;;;;;;;;;;;;12.25;100.00;100331.56;4883011;29;19957;-75
2023/09/26 02:08:32;;;;;;;;;;;;;;;12.20;100.00;100333.75;4882511;29;19963;-74
2023/09/26 02:10:58;;;;;;;;;;;;;;;12.26;100.00;100333.22;4882699;29;19924;-74
2023/09/26 02:13:24;;;;;;;;;;;;;;;12.44;100.00;100334.25;4878540;29;19924;-75
2023/09/26 02:15:50;;;;;;;;;;;;;;;12.59;100.00;100327.63;4883252;29;19928;-75
2023/09/26 02:18:15;;;;;;;;;;;;;;;12.70;100.00;100331.94;4882674;29;20416;-74
2023/09/26 02:20:41;;;;;;;;;;;;;;;12.76;100.00;100335.84;4882511;29;19931;-74
2023/09/26 02:23:06;;;;;;;;;;;;;;;12.82;100.00;100328.19;4882626;29;20015;-75
2023/09/26 02:25:31;;;;;;;;;;;;;;;12.90;100.00;100327.50;4883366;29;19930;-75
2023/09/26 02:27:57;;;;;;;;;;;;;;;12.91;100.00;100339.75;4882446;29;20388;-75
2023/09/26 02:30:23;;;;;;;;;;;;;;;12.82;100.00;100325.53;4879872;29;20157;-74
2023/09/26 02:32:48;;;;;;;;;;;;;;;12.77;100.00;100345.47;4878364;29;20281;-75
2023/09/26 02:35:14;;;;;;;;;;;;;;;12.79;100.00;100339.03;4879668;29;19923;-74
2023/09/26 02:37:40;;;;;;;;;;;;;;;12.78;100.00;100341.84;4877647;29;19980;-75
2023/09/26 02:40:09;;;;;;;;;;;;;;;12.78;100.00;100339.22;4879711;29;19957;-75
2023/09/26 02:42:38;;;;;;;;;;;;;;;12.72;100.00;100336.09;4876967;29;20399;-75
2023/09/26 02:45:04;;;;;;;;;;;;;;;12.76;100.00;100336.69;4879543;29;19927;-75
2023/09/26 02:47:29;;;;;;;;;;;;;;;12.64;100.00;100328.03;4878091;29;19920;-74
2023/09/26 02:49:55;;;;;;;;;;;;;;;12.59;100.00;100330.25;4878190;29;20377;-74
2023/09/26 02:52:21;;;;;;;;;;;;;;;12.60;100.00;100328.44;4879331;29;19924;-74
2023/09/26 02:54:47;;;;;;;;;;;;;;;12.60;100.00;100329.28;4866383;29;19927;-74
2023/09/26 02:57:13;;;;;;;;;;;;;;;12.64;100.00;100322.75;4879713;29;19928;-74
2023/09/26 02:59:38;;;;;;;;;;;;;;;12.58;100.00;100318.00;4878641;29;19920;-73
2023/09/26 03:02:03;;;;;;;;;;;;;;;12.55;100.00;100322.69;4879151;29;19931;-73
2023/09/26 03:04:29;;;;;;;;;;;;;;;12.48;100.00;100317.16;4875766;29;19975;-75
2023/09/26 03:06:54;;;;;;;;;;;;;;;12.50;100.00;100314.34;4877997;29;19920;-73
2023/09/26 03:09:20;;;;;;;;;;;;;;;12.56;100.00;100327.88;4878703;29;20369;-75
2023/09/26 03:11:45;;;;;;;;;;;;;;;12.63;100.00;100318.41;4876501;29;19932;-75
2023/09/26 03:14:12;;;;;;;;;;;;;;;12.66;100.00;100320.78;4877644;29;20026;-74
2023/09/26 03:16:38;;;;;;;;;;;;;;;12.66;100.00;100322.63;4877395;29;20540;-74
2023/09/26 03:19:05;;;;;;;;;;;;;;;12.65;100.00;100307.69;4878631;29;19920;-74
2023/09/26 03:21:33;;;;;;;;;;;;;;;12.64;100.00;100316.59;4876899;29;20486;-74
2023/09/26 03:23:58;;;;;;;;;;;;;;;12.59;100.00;100309.09;4878491;29;19924;-74
2023/09/26 03:26:23;;;;;;;;;;;;;;;12.53;100.00;100309.63;4883257;29;20358;-73
2023/09/26 03:28:49;;;;;;;;;;;;;;;12.52;100.00;100307.94;4877238;29;19931;-73
2023/09/26 03:31:14;;;;;;;;;;;;;;;12.46;100.00;100308.50;4876350;29;20003;-73
2023/09/26 03:33:40;;;;;;;;;;;;;;;12.49;100.00;100308.22;4874354;29;19930;-74
2023/09/26 03:36:06;;;;;;;;;;;;;;;12.50;100.00;100315.19;4878855;29;19923;-74
2023/09/26 03:38:31;;;;;;;;;;;;;;;12.54;100.00;100316.59;4877180;29;19923;-74
2023/09/26 03:41:00;;;;;;;;;;;;;;;12.51;100.00;100305.44;4878337;29;19952;-74
2023/09/26 03:43:26;;;;;;;;;;;;;;;12.53;100.00;100319.38;4878262;29;20385;-74
2023/09/26 03:46:00;;;;;;;;;;;;;;;12.53;100.00;100314.94;4877987;29;19924;-74
2023/09/26 03:48:25;;;;;;;;;;;;;;;12.54;100.00;100316.59;4876065;29;19923;-73
2023/09/26 03:50:51;;;;;;;;;;;;;;;12.58;100.00;100323.28;4871847;29;19924;-74
2023/09/26 03:53:16;;;;;;;;;;;;;;;12.57;100.00;100321.59;4878338;29;20270;-75
2023/09/26 03:55:41;;;;;;;;;;;;;;;12.57;100.00;100321.59;4879130;29;20421;-74
2023/09/26 03:58:07;;;;;;;;;;;;;;;12.57;100.00;100326.91;4879911;29;19930;-74
2023/09/26 04:00:32;;;;;;;;;;;;;;;12.54;100.00;100323.69;4877921;29;20022;-74
2023/09/26 04:02:59;;;;;;;;;;;;;;;12.39;100.00;100328.53;4878062;29;20345;-74
2023/09/26 04:05:25;;;;;;;;;;;;;;;12.34;100.00;100330.75;4878288;29;20022;-73
2023/09/26 04:07:50;;;;;;;;;;;;;;;12.37;100.00;100325.16;4877785;29;20022;-74
2023/09/26 04:10:16;;;;;;;;;;;;;;;12.40;100.00;100324.91;4874404;29;20385;-74
2023/09/26 04:12:41;;;;;;;;;;;;;;;12.41;100.00;100331.91;4876129;29;19924;-74
2023/09/26 04:15:07;;;;;;;;;;;;;;;12.46;100.00;100329.66;4878217;29;19927;-74
2023/09/26 04:17:32;;;;;;;;;;;;;;;12.47;100.00;100331.34;4875907;29;19924;-74
2023/09/26 04:19:57;;;;;;;;;;;;;;;12.49;100.00;100323.25;4878001;29;19923;-74
2023/09/26 04:22:23;;;;;;;;;;;;;;;12.49;100.00;100318.78;4877681;29;19927;-73
2023/09/26 04:24:48;;;;;;;;;;;;;;;12.54;100.00;100327.19;4877514;29;20337;-74
2023/09/26 04:27:14;;;;;;;;;;;;;;;12.48;100.00;100321.59;4880596;29;20370;-74
2023/09/26 04:29:39;;;;;;;;;;;;;;;12.52;100.00;100323.00;4873538;29;19924;-73
2023/09/26 04:32:04;;;;;;;;;;;;;;;12.55;100.00;100318.25;4877534;29;19947;-74
2023/09/26 04:34:32;;;;;;;;;;;;;;;12.47;100.00;100325.22;4877362;29;19928;-74
2023/09/26 04:36:57;;;;;;;;;;;;;;;12.30;100.00;100321.41;4876040;29;20023;-75
2023/09/26 04:39:22;;;;;;;;;;;;;;;12.21;100.00;100319.56;4877700;29;20360;-74
2023/09/26 04:41:48;;;;;;;;;;;;;;;12.17;100.00;100323.47;4876984;29;20340;-73
2023/09/26 04:44:13;;;;;;;;;;;;;;;12.10;100.00;100322.31;4877519;29;19928;-72
2023/09/26 04:46:38;;;;;;;;;;;;;;;11.98;100.00;100318.09;4876976;29;20026;-74
2023/09/26 04:49:04;;;;;;;;;;;;;;;11.96;100.00;100320.06;4876781;29;19927;-78
2023/09/26 04:51:30;;;;;;;;;;;;;;;12.03;100.00;100323.81;4878532;29;19924;-76
2023/09/26 04:53:57;;;;;;;;;;;;;;;12.05;100.00;100319.25;4858516;29;19935;-77
2023/09/26 04:56:23;;;;;;;;;;;;;;;12.06;100.00;100316.47;4872618;29;19967;-75
2023/09/26 04:58:52;;;;;;;;;;;;;;;12.04;100.00;100318.41;4877881;29;19970;-78
2023/09/26 05:01:18;;;;;;;;;;;;;;;12.08;100.00;100318.97;4858820;29;19960;-79
2023/09/26 05:03:45;;;;;;;;;;;;;;;12.03;100.00;100323.81;4873467;29;19931;-74
2023/09/26 05:06:11;;;;;;;;;;;;;;;12.00;100.00;100324.94;4877461;29;20285;-74
2023/09/26 05:08:37;;;;;;;;;;;;;;;12.00;100.00;100326.75;4872463;29;20297;-75
2023/09/26 05:11:03;;;;;;;;;;;;;;;12.03;100.00;100331.75;4876775;29;19924;-75
2023/09/26 05:13:29;;;;;;;;;;;;;;;12.00;100.00;100332.88;4877241;29;19972;-74
2023/09/26 05:15:54;;;;;;;;;;;;;;;12.05;100.00;100329.81;4877007;29;19927;-73
2023/09/26 05:18:21;;;;;;;;;;;;;;;12.09;100.00;100333.88;4868170;29;20017;-75
2023/09/26 05:20:46;;;;;;;;;;;;;;;12.11;100.00;100324.00;4874243;29;19950;-75
2023/09/26 05:23:12;;;;;;;;;;;;;;;12.08;100.00;100329.53;4869405;29;20389;-75
2023/09/26 05:25:37;;;;;;;;;;;;;;;12.09;100.00;100331.22;4871150;29;19930;-76
2023/09/26 05:28:05;;;;;;;;;;;;;;;12.08;100.00;100334.81;4872411;29;19934;-76
2023/09/26 05:30:30;;;;;;;;;;;;;;;12.05;100.00;100333.31;4876785;29;20404;-79
2023/09/26 05:32:56;;;;;;;;;;;;;;;12.03;100.00;100334.38;4873925;29;19924;-75
2023/09/26 05:35:21;;;;;;;;;;;;;;;12.01;100.00;100328.41;4875263;29;19923;-78
2023/09/26 05:37:47;;;;;;;;;;;;;;;11.99;100.00;100336.47;4889400;23;20188;-78
2023/09/26 05:40:12;;;;;;;;;;;;;;;12.00;100.00;100329.38;4897219;29;19927;-78
2023/09/26 05:42:38;;;;;;;;;;;;;;;12.03;100.00;100337.88;4891590;29;20373;-78
2023/09/26 05:45:05;;;;;;;;;;;;;;;12.02;100.00;100335.34;4875007;29;20372;-76
2023/09/26 05:47:30;;;;;;;;;;;;;;;11.92;100.00;100340.63;4888687;29;20389;-77
2023/09/26 05:49:56;;;;;;;;;;;;;;;11.84;100.00;100338.63;4874988;29;19927;-79
2023/09/26 05:52:22;;;;;;;;;;;;;;;11.80;100.00;100347.78;4895145;29;20026;-78
2023/09/26 05:54:47;;;;;;;;;;;;;;;11.82;100.00;100345.88;4884912;29;20035;-76
2023/09/26 05:57:13;;;;;;;;;;;;;;;11.80;100.00;100347.78;4892095;29;19935;-77
2023/09/26 05:59:39;;;;;;;;;;;;;;;11.88;100.00;100345.34;4889642;29;19920;-78
2023/09/26 06:02:05;;;;;;;;;;;;;;;11.92;100.00;100355.66;4891260;29;20022;-77
2023/09/26 06:04:30;;;;;;;;;;;;;;;11.99;100.00;100351.50;4891308;29;19931;-78
2023/09/26 06:06:56;;;;;;;;;;;;;;;12.07;100.00;100354.34;4890023;29;20004;-77
2023/09/26 06:09:21;;;;;;;;;;;;;;;12.12;100.00;100349.47;4896300;29;20022;-77
2023/09/26 06:11:47;;;;;;;;;;;;;;;12.15;100.00;100342.09;4891857;29;19999;-77
2023/09/26 06:14:12;;;;;;;;;;;;;;;12.17;100.00;100348.13;4897902;29;19931;-76
2023/09/26 06:16:38;;;;;;;;;;;;;;;12.13;100.00;100359.09;4898475;29;19923;-76
2023/09/26 06:19:04;;;;;;;;;;;;;;;12.16;100.00;100358.81;4896599;29;19939;-77
2023/09/26 06:21:29;;;;;;;;;;;;;;;12.18;100.00;100364.81;4893574;29;19933;-77
2023/09/26 06:23:55;;;;;;;;;;;;;;;12.14;100.00;100366.03;4892780;29;20010;-78
2023/09/26 06:26:21;;;;;;;;;;;;;;;12.22;100.00;100367.06;4895484;29;19947;-78
2023/09/26 06:28:47;;;;;;;;;;;;;;;12.24;100.00;100372.22;4894428;29;19935;-83
2023/09/26 06:31:12;;;;;;;;;;;;;;;12.28;100.00;100378.94;4894703;29;19924;-79
2023/09/26 06:33:38;;;;;;;;;;;;;;;12.32;100.00;100377.69;4894282;29;19927;-81
2023/09/26 06:36:13;;;;;;;;;;;;;;;12.27;100.00;100372.78;4897906;29;19931;-78
2023/09/26 06:38:39;;;;;;;;;;;;;;;12.34;100.00;100380.19;4897023;29;19923;-80
2023/09/26 06:41:06;;;;;;;;;;;;;;;12.35;100.00;100376.59;4894554;29;19931;-79
2023/09/26 06:43:32;;;;;;;;;;;;;;;12.37;100.00;100378.09;4890890;29;19932;-80
2023/09/26 06:45:57;;;;;;;;;;;;;;;12.45;100.00;100372.16;4893914;29;20029;-79
2023/09/26 06:48:23;;;;;;;;;;;;;;;12.53;100.00;100372.31;4891736;29;19931;-79
2023/09/26 06:50:48;;;;;;;;;;;;;;;12.60;100.00;100379.59;4891946;29;20019;-79
2023/09/26 06:53:14;;;;;;;;;;;;;;;12.69;100.00;100384.06;4896256;29;20038;-79
2023/09/26 06:55:39;;;;;;;;;;;;;;;12.77;100.00;100390.50;4895725;29;19923;-79
2023/09/26 06:58:08;;;;;;;;;;;;;;;12.84;100.00;100391.63;4891543;29;19924;-79
2023/09/26 07:00:37;;;;;;;;;;;;;;;12.92;100.00;100391.75;4893890;29;19930;-79
2023/09/26 07:03:04;;;;;;;;;;;;;;;13.03;100.00;100391.63;4893451;29;20342;-80
2023/09/26 07:05:29;;;;;;;;;;;;;;;13.11;100.00;100389.16;4893626;29;20393;-80
2023/09/26 07:07:55;;;;;;;;;;;;;;;13.17;100.00;100387.78;4892746;29;19927;-80
2023/09/26 07:10:24;;;;;;;;;;;;;;;13.25;100.00;100391.44;4895384;29;19923;-79
2023/09/26 07:12:51;;;;;;;;;;;;;;;13.34;100.00;100382.63;4892820;29;19946;-75
2023/09/26 07:15:18;;;;;;;;;;;;;;;13.43;100.00;100379.09;4891494;29;19967;-80
2023/09/26 07:17:44;;;;;;;;;;;;;;;13.56;100.00;100380.63;4893304;29;19924;-79
2023/09/26 07:20:16;;;;;;;;;;;;;;;13.66;100.00;100384.13;4890693;29;19972;-82
2023/09/26 07:22:42;;;;;;;;;;;;;;;13.76;100.00;100388.44;4895422;29;20353;-80
2023/09/26 07:25:07;;;;;;;;;;;;;;;13.79;100.00;100376.69;4895112;29;19931;-78
2023/09/26 07:27:33;;;;;;;;;;;;;;;13.89;100.00;100369.56;4892573;29;19972;-80
2023/09/26 07:29:58;;;;;;;;;;;;;;;13.99;100.00;100380.97;4896985;29;19924;-80
2023/09/26 07:32:24;;;;;;;;;;;;;;;14.10;100.00;100383.44;4891749;29;20359;-80
2023/09/26 07:34:49;;;;;;;;;;;;;;;14.15;100.00;100375.03;4892366;29;19934;-80
2023/09/26 07:37:15;;;;;;;;;;;;;;;14.19;100.00;100371.97;4893772;29;19931;-80
2023/09/26 07:39:48;;;;;;;;;;;;;;;14.29;100.00;100371.91;4893008;29;19928;-80
2023/09/26 07:42:13;;;;;;;;;;;;;;;14.42;100.00;100376.94;4890379;29;19946;-81
2023/09/26 07:44:39;;;;;;;;;;;;;;;14.46;100.00;100373.81;4890016;29;19952;-80
2023/09/26 07:47:04;;;;;;;;;;;;;;;14.51;100.00;100376.03;4890572;29;19931;-80
2023/09/26 07:49:30;;;;;;;;;;;;;;;14.57;100.00;100367.47;4893172;29;19924;-81
2023/09/26 07:51:55;;;;;;;;;;;;;;;14.63;100.00;100375.69;4891923;29;19927;-80
2023/09/26 07:54:21;;;;;;;;;;;;;;;14.70;100.00;100370.59;4892982;29;19931;-81
2023/09/26 07:56:46;;;;;;;;;;;;;;;14.79;100.00;100379.47;4873811;29;19979;-80
2023/09/26 07:59:12;;;;;;;;;;;;;;;14.85;100.00;100369.09;4877353;29;19926;-81
2023/09/26 08:01:37;;;;;;;;;;;;;;;14.93;100.00;100371.84;4889186;29;20027;-81
2023/09/26 08:04:03;;;;;;;;;;;;;;;15.02;100.00;100372.78;4896083;29;19924;-81
2023/09/26 08:06:28;;;;;;;;;;;;;;;15.12;100.00;100369.06;4891209;29;19931;-81
2023/09/26 08:08:53;;;;;;;;;;;;;;;15.20;100.00;100375.44;4896077;29;19938;-81
2023/09/26 08:11:21;;;;;;;;;;;;;;;15.27;100.00;100368.50;4893591;29;19920;-81
2023/09/26 08:13:46;;;;;;;;;;;;;;;15.34;100.00;100369.56;4893524;29;19927;-81
2023/09/26 08:16:11;;;;;;;;;;;;;;;15.42;100.00;100372.31;4892305;29;19930;-81
2023/09/26 08:18:37;;;;;;;;;;;;;;;15.48;100.00;100383.16;4895014;29;19924;-81
2023/09/26 08:21:03;;;;;;;;;;;;;;;15.58;100.00;100383.09;4892993;29;19924;-81
2023/09/26 08:23:29;;;;;;;;;;;;;;;15.67;100.00;100387.47;4891967;29;19923;-81
2023/09/26 08:25:58;;;;;;;;;;;;;;;15.73;100.00;100384.19;4894765;29;19924;-81
2023/09/26 08:28:25;;;;;;;;;;;;;;;15.83;100.00;100379.63;4891076;29;19955;-82
2023/09/26 08:30:51;;;;;;;;;;;;;;;15.91;100.00;100382.31;4889955;29;20046;-80
2023/09/26 08:33:16;;;;;;;;;;;;;;;15.97;100.00;100379.03;4892139;29;20010;-80
2023/09/26 08:35:42;;;;;;;;;;;;;;;16.05;100.00;100374.75;4889502;29;19945;-81
2023/09/26 08:38:07;;;;;;;;;;;;;;;16.11;100.00;100380.28;4892754;29;19930;-81
2023/09/26 08:40:33;;;;;;;;;;;;;;;16.20;100.00;100374.00;4891912;29;19923;-80
2023/09/26 08:42:58;;;;;;;;;;;;;;;16.29;100.00;100366.88;4894128;29;19920;-80
2023/09/26 08:45:24;;;;;;;;;;;;;;;16.36;100.00;100374.09;4889265;29;20300;-81
2023/09/26 08:47:52;;;;;;;;;;;;;;;16.47;100.00;100370.28;4891341;29;20002;-81
2023/09/26 08:50:17;;;;;;;;;;;;;;;16.54;100.00;100368.66;4891999;29;19919;-80
2023/09/26 08:52:43;;;;;;;;;;;;;;;16.62;100.00;100367.88;4892284;29;19935;-81
2023/09/26 08:55:09;;;;;;;;;;;;;;;16.70;100.00;100366.06;4892802;29;19962;-81
2023/09/26 08:57:34;;;;;;;;;;;;;;;16.83;100.00;100370.09;4894055;29;19927;-80
2023/09/26 09:00:03;;;;;;;;;;;;;;;16.94;100.00;100361.78;4896494;29;19930;-82
2023/09/26 09:02:32;;;;;;;;;;;;;;;17.03;100.00;100371.47;4898621;29;19970;-81
2023/09/26 09:04:58;;;;;;;;;;;;;;;17.12;100.00;100365.16;4893152;29;19963;-81
2023/09/26 09:07:24;;;;;;;;;;;;;;;17.21;100.00;100358.81;4887468;29;19924;-81
2023/09/26 09:10:22;;;;;;;;;;;;;;;17.26;100.00;100359.16;4889520;29;19935;-81
2023/09/26 09:12:47;;;;;;;;;;;;;;;17.41;100.00;100360.16;4859198;29;20356;-82
2023/09/26 09:15:16;;;;;;;;;;;;;;;17.48;100.00;100363.84;4894950;29;20018;-81
2023/09/26 09:17:42;;;;;;;;;;;;;;;17.54;100.00;100365.84;4872610;29;19939;-81
2023/09/26 09:20:08;;;;;;;;;;;;;;;17.61;100.00;100359.88;4892468;29;20365;-81
2023/09/26 09:22:33;;;;;;;;;;;;;;;17.65;100.00;100362.03;4891504;29;19951;-80
2023/09/26 09:24:59;;;;;;;;;;;;;;;17.72;100.00;100352.34;4896489;29;19924;-81
2023/09/26 09:27:29;;;;;;;;;;;;;;;17.76;100.00;100358.16;4889471;29;19924;-84
2023/09/26 09:30:05;;;;;;;;;;;;;;;17.83;100.00;100348.47;4887939;29;19967;-82
2023/09/26 09:32:31;;;;;;;;;;;;;;;17.90;100.00;100346.81;4890970;29;19935;-81
2023/09/26 09:34:56;;;;;;;;;;;;;;;17.96;100.00;100349.63;4898432;29;19924;-83
2023/09/26 09:37:22;;;;;;;;;;;;;;;18.02;100.00;100341.94;4877653;29;19923;-83
2023/09/26 09:39:47;;;;;;;;;;;;;;;18.09;100.00;100341.03;4898615;29;19979;-81
2023/09/26 09:42:13;;;;;;;;;;;;;;;18.15;100.00;100343.03;4901235;29;19927;-81
2023/09/26 09:44:38;;;;;;;;;;;;;;;18.22;100.00;100338.66;4897708;29;19963;-80
2023/09/26 09:47:04;;;;;;;;;;;;;;;18.27;100.00;100336.31;4903298;29;19930;-84
2023/09/26 09:49:35;;;;;;;;;;;;;;;18.31;100.00;100326.97;4904266;29;19923;-84
2023/09/26 09:52:03;;;;;;;;;;;;;;;18.38;100.00;100322.56;4900114;29;19998;-85
2023/09/26 09:54:31;;;;;;;;;;;;;;;18.41;100.00;100319.56;4893198;29;19923;-84
2023/09/26 09:56:58;;;;;;;;;;;;;;;18.45;100.00;100317.34;4902009;29;19931;-82
2023/09/26 09:59:25;;;;;;;;;;;;;;;18.52;100.00;100322.84;4895335;29;19923;-80
2023/09/26 10:01:52;;;;;;;;;;;;;;;18.60;100.00;100320.16;4900316;29;20288;-81
2023/09/26 10:04:19;;;;;;;;;;;;;;;18.63;100.00;100309.09;4897267;29;19929;-82
2023/09/26 10:06:44;;;;;;;;;;;;;;;18.68;100.00;100312.06;4895897;29;19951;-80
2023/09/26 10:09:10;;;;;;;;;;;;;;;18.71;100.00;100306.38;4895607;29;19924;-81
2023/09/26 10:11:35;;;;;;;;;;;;;;;18.73;100.00;100304.38;4877963;29;19938;-81
2023/09/26 10:14:07;;;;;;;;;;;;;;;18.76;100.00;100304.84;4897484;29;19924;-81
2023/09/26 10:16:32;;;;;;;;;;;;;;;18.81;100.00;100312.34;4897553;29;19972;-82
2023/09/26 10:19:00;;;;;;;;;;;;;;;18.86;100.00;100306.44;4898484;29;19927;-82
2023/09/26 10:21:26;;;;;;;;;;;;;;;18.90;100.00;100300.59;4893508;29;20027;-81
2023/09/26 10:24:09;;;;;;;;;;;;;;;18.94;100.00;100299.22;4895115;29;20364;-82
2023/09/26 10:26:39;;;;;;;;;;;;;;;19.03;100.00;100297.28;4893992;29;19930;-82
2023/09/26 10:29:05;;;;;;;;;;;;;;;19.08;100.00;100294.94;4896977;29;20444;-81
2023/09/26 10:31:34;;;;;;;;;;;;;;;19.13;100.00;100295.22;4896311;29;19923;-83
2023/09/26 10:33:59;;;;;;;;;;;;;;;19.17;100.00;100288.50;4899621;29;20014;-82
2023/09/26 10:36:25;;;;;;;;;;;;;;;19.23;100.00;100285.94;4895944;29;20018;-82
2023/09/26 10:38:57;;;;;;;;;;;;;;;19.30;100.00;100286.03;4890851;29;19923;-82
2023/09/26 10:41:23;;;;;;;;;;;;;;;19.40;100.00;100288.44;4895314;29;19924;-81
2023/09/26 10:43:48;;;;;;;;;;;;;;;19.39;100.00;100278.75;4893229;29;19935;-82
2023/09/26 10:46:14;;;;;;;;;;;;;;;19.46;100.00;100277.03;4894551;29;19985;-81
2023/09/26 10:48:40;;;;;;;;;;;;;;;19.58;100.00;100284.44;4889760;29;19920;-81
2023/09/26 10:51:06;;;;;;;;;;;;;;;19.70;100.00;100281.31;4893990;29;20336;-81
2023/09/26 10:53:31;;;;;;;;;;;;;;;19.72;100.00;100285.47;4889493;29;19930;-81
2023/09/26 10:55:57;;;;;;;;;;;;;;;19.82;100.00;100278.00;4895421;29;19924;-81
2023/09/26 10:58:23;;;;;;;;;;;;;;;19.94;100.00;100273.84;4894200;29;19923;-82
2023/09/26 11:00:49;;;;;;;;;;;;;;;19.99;100.00;100270.59;4898162;29;20640;-81
2023/09/26 11:03:14;;;;;;;;;;;;;;;20.03;100.00;100277.25;4894353;29;20261;-82
2023/09/26 11:05:40;;;;;;;;;;;;;;;20.13;100.00;100271.59;4895525;29;20360;-82
2023/09/26 11:08:05;;;;;;;;;;;;;;;20.24;100.00;100263.09;4892980;29;20014;-81
2023/09/26 11:10:30;;;;;;;;;;;;;;;20.27;100.00;100257.34;4894253;29;19928;-81
2023/09/26 11:12:56;;;;;;;;;;;;;;;20.33;100.00;100256.63;4888916;29;19930;-82
2023/09/26 11:15:22;;;;;;;;;;;;;;;20.47;100.00;100253.06;4895403;29;19923;-81
2023/09/26 11:17:48;;;;;;;;;;;;;;;20.58;100.00;100249.88;4892373;29;19927;-82
2023/09/26 11:20:15;;;;;;;;;;;;;;;20.70;100.00;100247.53;4892818;29;19957;-82
2023/09/26 11:22:44;;;;;;;;;;;;;;;20.83;100.00;100247.66;4894603;29;20365;-81
2023/09/26 11:25:10;;;;;;;;;;;;;;;20.94;100.00;100238.25;4895090;29;20388;-82
2023/09/26 11:27:43;;;;;;;;;;;;;;;21.10;100.00;100240.66;4875503;29;19977;-82
2023/09/26 11:30:12;;;;;;;;;;;;;;;21.25;100.00;100241.47;4893713;29;20345;-80
2023/09/26 11:32:38;;;;;;;;;;;;;;;21.41;100.00;100240.31;4890887;29;19919;-81
2023/09/26 11:35:04;;;;;;;;;;;;;;;21.55;100.00;100231.34;4893511;29;19931;-82
2023/09/26 11:37:32;;;;;;;;;;;;;;;21.76;100.00;100227.72;4893339;29;19930;-80
2023/09/26 11:39:58;;;;;;;;;;;;;;;21.89;100.00;100243.91;4873158;29;19984;-81
2023/09/26 11:42:23;;;;;;;;;;;;;;;22.03;100.00;100234.94;4894740;29;19923;-82
2023/09/26 11:44:53;;;;;;;;;;;;;;;22.14;100.00;100230.81;4893076;29;19927;-80
2023/09/26 11:47:19;;;;;;;;;;;;;;;22.22;100.00;100223.41;4893953;29;19924;-80
2023/09/26 11:49:45;;;;;;;;;;;;;;;22.31;100.00;100224.91;4895121;29;19947;-83
2023/09/26 11:52:10;;;;;;;;;;;;;;;22.43;100.00;100220.59;4895378;29;19927;-80
2023/09/26 11:54:36;;;;;;;;;;;;;;;22.54;100.00;100212.94;4894456;29;19990;-83
2023/09/26 11:57:02;;;;;;;;;;;;;;;22.66;100.00;100216.69;4876362;29;20015;-80
2023/09/26 11:59:28;;;;;;;;;;;;;;;22.73;100.00;100209.50;4893292;29;19923;-79
2023/09/26 12:01:54;;;;;;;;;;;;;;;22.84;100.00;100211.56;4893959;29;19934;-78
2023/09/26 12:04:21;;;;;;;;;;;;;;;22.99;100.00;100206.78;4890315;29;20321;-80
2023/09/26 12:06:46;;;;;;;;;;;;;;;23.14;100.00;100202.03;4894286;29;19927;-79
2023/09/26 12:09:19;;;;;;;;;;;;;;;23.28;100.00;100206.34;4892868;29;19924;-81
2023/09/26 12:11:45;;;;;;;;;;;;;;;23.36;100.00;100201.78;4895984;29;19927;-81
2023/09/26 12:14:11;;;;;;;;;;;;;;;23.47;100.00;100201.19;4895444;29;19950;-79
2023/09/26 12:16:36;;;;;;;;;;;;;;;23.54;100.00;100212.78;4893174;29;19931;-79
2023/09/26 12:19:01;;;;;;;;;;;;;;;23.65;100.00;100204.03;4893312;29;20377;-79
2023/09/26 12:21:27;;;;;;;;;;;;;;;23.73;100.00;100195.72;4896491;29;19987;-78
2023/09/26 12:23:53;;;;;;;;;;;;;;;23.84;100.00;100189.69;4892778;29;19923;-77